Terminal Aerodrome Forecast
Issued by NWS Corpus Christi, TX

Current Version | Previous Version | Text Only | Print | Product List | Glossary On
Versions: 1 2 3 4 5 6 7 8 9 10 11 12 13 14 15 16 17 18 19 20 21 22 23 24 25 26
000
FTUS44 KCRP 050500
TAFVCT
TAF
KVCT 050525Z 0506/0606 35022G32KT 6SM SHRA BKN010 OVC015
      TEMPO 0506/0510 3SM RA BR OVC008
     FM051400 36023G29KT P6SM BKN012 OVC028
     FM051900 36018G25KT P6SM BKN020 OVC050
     FM060000 01015KT P6SM BKN050 BKN250=

USA.gov is the U.S. government's official web portal to all federal, state and local government web resources and services.